sensor_id;sensor_type;location;lat;lon;timestamp;P1;durP1;ratioP1;P2;durP2;ratioP2
50337;SDS011;46221;51.178;5.900;2023-04-28T00:00:54;5.18;;;3.03;;
50337;SDS011;46221;51.178;5.900;2023-04-28T00:03:20;4.90;;;3.08;;
50337;SDS011;46221;51.178;5.900;2023-04-28T00:05:46;4.32;;;2.75;;
50337;SDS011;46221;51.178;5.900;2023-04-28T00:08:14;5.65;;;3.08;;
50337;SDS011;46221;51.178;5.900;2023-04-28T00:10:41;5.28;;;3.10;;
50337;SDS011;46221;51.178;5.900;2023-04-28T00:13:07;5.10;;;2.88;;
50337;SDS011;46221;51.178;5.900;2023-04-28T00:15:33;4.43;;;2.80;;
50337;SDS011;46221;51.178;5.900;2023-04-28T00:18:00;4.43;;;2.67;;
50337;SDS011;46221;51.178;5.900;2023-04-28T00:20:27;4.10;;;2.60;;
50337;SDS011;46221;51.178;5.900;2023-04-28T00:22:53;4.25;;;2.72;;
50337;SDS011;46221;51.178;5.900;2023-04-28T00:25:19;4.50;;;2.63;;
50337;SDS011;46221;51.178;5.900;2023-04-28T00:27:45;3.97;;;2.67;;
50337;SDS011;46221;51.178;5.900;2023-04-28T00:30:12;4.40;;;2.78;;
50337;SDS011;46221;51.178;5.900;2023-04-28T00:32:38;4.53;;;2.88;;
50337;SDS011;46221;51.178;5.900;2023-04-28T00:35:06;4.47;;;2.92;;
50337;SDS011;46221;51.178;5.900;2023-04-28T00:37:34;4.32;;;2.47;;
50337;SDS011;46221;51.178;5.900;2023-04-28T00:40:01;5.40;;;2.72;;
50337;SDS011;46221;51.178;5.900;2023-04-28T00:42:28;4.60;;;2.88;;
50337;SDS011;46221;51.178;5.900;2023-04-28T00:44:54;4.13;;;2.47;;
50337;SDS011;46221;51.178;5.900;2023-04-28T00:47:21;5.72;;;3.00;;
50337;SDS011;46221;51.178;5.900;2023-04-28T00:49:47;4.50;;;3.00;;
50337;SDS011;46221;51.178;5.900;2023-04-28T00:52:14;6.07;;;3.03;;
50337;SDS011;46221;51.178;5.900;2023-04-28T00:54:41;3.83;;;2.70;;
50337;SDS011;46221;51.178;5.900;2023-04-28T00:57:13;4.00;;;2.80;;
50337;SDS011;46221;51.178;5.900;2023-04-28T00:59:39;7.15;;;2.90;;
50337;SDS011;46221;51.178;5.900;2023-04-28T01:02:05;5.18;;;3.05;;
50337;SDS011;46221;51.178;5.900;2023-04-28T01:04:32;5.30;;;3.47;;
50337;SDS011;46221;51.178;5.900;2023-04-28T01:07:00;4.05;;;2.83;;
50337;SDS011;46221;51.178;5.900;2023-04-28T01:09:26;4.47;;;2.90;;
50337;SDS011;46221;51.178;5.900;2023-04-28T01:11:53;5.20;;;2.70;;
50337;SDS011;46221;51.178;5.900;2023-04-28T01:14:21;4.57;;;2.90;;
50337;SDS011;46221;51.178;5.900;2023-04-28T01:16:47;4.10;;;2.90;;
50337;SDS011;46221;51.178;5.900;2023-04-28T01:19:16;4.38;;;2.85;;
50337;SDS011;46221;51.178;5.900;2023-04-28T01:21:45;5.15;;;3.03;;
50337;SDS011;46221;51.178;5.900;2023-04-28T01:24:11;4.53;;;2.85;;
50337;SDS011;46221;51.178;5.900;2023-04-28T01:26:39;5.38;;;3.08;;
50337;SDS011;46221;51.178;5.900;2023-04-28T01:29:05;3.92;;;2.70;;
50337;SDS011;46221;51.178;5.900;2023-04-28T01:31:31;4.22;;;2.92;;
50337;SDS011;46221;51.178;5.900;2023-04-28T01:33:58;4.32;;;3.15;;
50337;SDS011;46221;51.178;5.900;2023-04-28T01:36:24;5.07;;;2.95;;
50337;SDS011;46221;51.178;5.900;2023-04-28T01:38:52;5.72;;;2.97;;
50337;SDS011;46221;51.178;5.900;2023-04-28T01:41:19;4.90;;;3.20;;
50337;SDS011;46221;51.178;5.900;2023-04-28T01:43:45;5.43;;;3.05;;
50337;SDS011;46221;51.178;5.900;2023-04-28T01:46:12;4.40;;;3.22;;
50337;SDS011;46221;51.178;5.900;2023-04-28T01:48:38;6.10;;;3.60;;
50337;SDS011;46221;51.178;5.900;2023-04-28T01:51:06;4.50;;;3.30;;
50337;SDS011;46221;51.178;5.900;2023-04-28T01:53:32;5.60;;;3.50;;
50337;SDS011;46221;51.178;5.900;2023-04-28T01:55:59;4.80;;;3.00;;
50337;SDS011;46221;51.178;5.900;2023-04-28T01:58:25;4.97;;;2.78;;
50337;SDS011;46221;51.178;5.900;2023-04-28T02:00:51;4.47;;;3.13;;
50337;SDS011;46221;51.178;5.900;2023-04-28T02:03:18;4.95;;;3.47;;
50337;SDS011;46221;51.178;5.900;2023-04-28T02:05:45;5.07;;;3.10;;
50337;SDS011;46221;51.178;5.900;2023-04-28T02:08:11;5.93;;;3.35;;
50337;SDS011;46221;51.178;5.900;2023-04-28T02:10:37;6.30;;;3.40;;
50337;SDS011;46221;51.178;5.900;2023-04-28T02:13:04;4.68;;;3.03;;
50337;SDS011;46221;51.178;5.900;2023-04-28T02:15:30;5.57;;;3.28;;
50337;SDS011;46221;51.178;5.900;2023-04-28T02:17:56;4.32;;;3.15;;
50337;SDS011;46221;51.178;5.900;2023-04-28T02:20:23;4.47;;;3.30;;
50337;SDS011;46221;51.178;5.900;2023-04-28T02:22:51;5.15;;;3.22;;
50337;SDS011;46221;51.178;5.900;2023-04-28T02:25:17;4.38;;;3.03;;
50337;SDS011;46221;51.178;5.900;2023-04-28T02:27:44;5.43;;;3.60;;
50337;SDS011;46221;51.178;5.900;2023-04-28T02:30:12;5.32;;;3.33;;
50337;SDS011;46221;51.178;5.900;2023-04-28T02:32:38;4.55;;;3.25;;
50337;SDS011;46221;51.178;5.900;2023-04-28T02:35:05;4.10;;;3.10;;
50337;SDS011;46221;51.178;5.900;2023-04-28T02:37:31;4.25;;;3.30;;
50337;SDS011;46221;51.178;5.900;2023-04-28T02:39:58;4.57;;;3.25;;
50337;SDS011;46221;51.178;5.900;2023-04-28T02:42:25;4.50;;;2.92;;
50337;SDS011;46221;51.178;5.900;2023-04-28T02:44:51;6.43;;;3.20;;
50337;SDS011;46221;51.178;5.900;2023-04-28T02:47:17;4.28;;;2.88;;
50337;SDS011;46221;51.178;5.900;2023-04-28T02:49:44;4.70;;;3.20;;
50337;SDS011;46221;51.178;5.900;2023-04-28T02:52:10;4.45;;;3.42;;
50337;SDS011;46221;51.178;5.900;2023-04-28T02:54:37;4.97;;;3.20;;
50337;SDS011;46221;51.178;5.900;2023-04-28T02:57:04;5.15;;;3.00;;
50337;SDS011;46221;51.178;5.900;2023-04-28T02:59:31;3.78;;;2.80;;
50337;SDS011;46221;51.178;5.900;2023-04-28T03:01:57;5.03;;;3.05;;
50337;SDS011;46221;51.178;5.900;2023-04-28T03:04:24;5.10;;;3.13;;
50337;SDS011;46221;51.178;5.900;2023-04-28T03:06:50;3.78;;;3.05;;
50337;SDS011;46221;51.178;5.900;2023-04-28T03:09:16;6.28;;;3.65;;
50337;SDS011;46221;51.178;5.900;2023-04-28T03:11:43;4.07;;;3.03;;
50337;SDS011;46221;51.178;5.900;2023-04-28T03:14:09;4.57;;;3.53;;
50337;SDS011;46221;51.178;5.900;2023-04-28T03:16:36;5.20;;;3.35;;
50337;SDS011;46221;51.178;5.900;2023-04-28T03:19:03;4.38;;;2.85;;
50337;SDS011;46221;51.178;5.900;2023-04-28T03:21:31;5.50;;;3.45;;
50337;SDS011;46221;51.178;5.900;2023-04-28T03:23:57;5.22;;;3.40;;
50337;SDS011;46221;51.178;5.900;2023-04-28T03:26:24;3.83;;;3.00;;
50337;SDS011;46221;51.178;5.900;2023-04-28T03:28:50;4.13;;;3.03;;
50337;SDS011;46221;51.178;5.900;2023-04-28T03:31:16;5.15;;;3.22;;
50337;SDS011;46221;51.178;5.900;2023-04-28T03:33:43;5.28;;;3.40;;
50337;SDS011;46221;51.178;5.900;2023-04-28T03:36:11;5.78;;;3.25;;
50337;SDS011;46221;51.178;5.900;2023-04-28T03:38:38;4.45;;;3.30;;
50337;SDS011;46221;51.178;5.900;2023-04-28T03:41:04;5.22;;;3.08;;
50337;SDS011;46221;51.178;5.900;2023-04-28T03:43:31;4.78;;;3.20;;
50337;SDS011;46221;51.178;5.900;2023-04-28T03:45:58;5.15;;;3.30;;
50337;SDS011;46221;51.178;5.900;2023-04-28T03:48:24;5.40;;;3.60;;
50337;SDS011;46221;51.178;5.900;2023-04-28T03:50:51;4.47;;;2.92;;
50337;SDS011;46221;51.178;5.900;2023-04-28T03:53:17;3.70;;;2.80;;
50337;SDS011;46221;51.178;5.900;2023-04-28T03:55:45;4.75;;;3.33;;
50337;SDS011;46221;51.178;5.900;2023-04-28T03:58:11;4.30;;;2.78;;
50337;SDS011;46221;51.178;5.900;2023-04-28T04:00:37;5.13;;;2.95;;
50337;SDS011;46221;51.178;5.900;2023-04-28T04:03:04;6.05;;;3.13;;
50337;SDS011;46221;51.178;5.900;2023-04-28T04:05:30;5.57;;;3.28;;
50337;SDS011;46221;51.178;5.900;2023-04-28T04:07:57;5.28;;;2.75;;
50337;SDS011;46221;51.178;5.900;2023-04-28T04:10:24;4.93;;;2.83;;
50337;SDS011;46221;51.178;5.900;2023-04-28T04:12:50;5.03;;;2.80;;
50337;SDS011;46221;51.178;5.900;2023-04-28T04:15:16;3.58;;;2.45;;
50337;SDS011;46221;51.178;5.900;2023-04-28T04:17:43;5.10;;;3.00;;
50337;SDS011;46221;51.178;5.900;2023-04-28T04:20:09;3.83;;;2.80;;
50337;SDS011;46221;51.178;5.900;2023-04-28T04:22:36;3.95;;;2.65;;
50337;SDS011;46221;51.178;5.900;2023-04-28T04:25:02;4.50;;;2.50;;
50337;SDS011;46221;51.178;5.900;2023-04-28T04:27:29;4.90;;;2.90;;
50337;SDS011;46221;51.178;5.900;2023-04-28T04:29:55;5.45;;;3.13;;
50337;SDS011;46221;51.178;5.900;2023-04-28T04:32:22;4.47;;;2.70;;
50337;SDS011;46221;51.178;5.900;2023-04-28T04:34:48;4.60;;;3.33;;
50337;SDS011;46221;51.178;5.900;2023-04-28T04:37:15;4.43;;;2.72;;
50337;SDS011;46221;51.178;5.900;2023-04-28T04:39:42;5.43;;;3.13;;
50337;SDS011;46221;51.178;5.900;2023-04-28T04:42:08;4.65;;;2.78;;
50337;SDS011;46221;51.178;5.900;2023-04-28T04:44:49;4.72;;;2.72;;
50337;SDS011;46221;51.178;5.900;2023-04-28T04:47:16;5.05;;;2.83;;
50337;SDS011;46221;51.178;5.900;2023-04-28T04:49:42;4.07;;;2.92;;
50337;SDS011;46221;51.178;5.900;2023-04-28T04:52:09;4.75;;;2.90;;
50337;SDS011;46221;51.178;5.900;2023-04-28T04:54:35;4.00;;;2.78;;
50337;SDS011;46221;51.178;5.900;2023-04-28T04:57:02;4.85;;;2.78;;
50337;SDS011;46221;51.178;5.900;2023-04-28T04:59:28;5.50;;;2.83;;
50337;SDS011;46221;51.178;5.900;2023-04-28T05:01:54;4.25;;;2.70;;
50337;SDS011;46221;51.178;5.900;2023-04-28T05:04:22;4.30;;;2.65;;
50337;SDS011;46221;51.178;5.900;2023-04-28T05:06:49;3.63;;;2.70;;
50337;SDS011;46221;51.178;5.900;2023-04-28T05:09:16;3.90;;;2.53;;
50337;SDS011;46221;51.178;5.900;2023-04-28T05:11:43;4.95;;;2.72;;
50337;SDS011;46221;51.178;5.900;2023-04-28T05:14:09;3.55;;;2.65;;
50337;SDS011;46221;51.178;5.900;2023-04-28T05:16:37;3.28;;;2.40;;
50337;SDS011;46221;51.178;5.900;2023-04-28T05:19:04;4.93;;;2.72;;
50337;SDS011;46221;51.178;5.900;2023-04-28T05:21:30;4.72;;;2.90;;
50337;SDS011;46221;51.178;5.900;2023-04-28T05:23:57;4.25;;;2.72;;
50337;SDS011;46221;51.178;5.900;2023-04-28T05:26:24;4.03;;;2.22;;
50337;SDS011;46221;51.178;5.900;2023-04-28T05:28:51;4.40;;;2.70;;
50337;SDS011;46221;51.178;5.900;2023-04-28T05:31:17;4.68;;;2.40;;
50337;SDS011;46221;51.178;5.900;2023-04-28T05:33:44;4.25;;;2.42;;
50337;SDS011;46221;51.178;5.900;2023-04-28T05:36:10;4.50;;;2.67;;
50337;SDS011;46221;51.178;5.900;2023-04-28T05:38:36;3.78;;;2.53;;
50337;SDS011;46221;51.178;5.900;2023-04-28T05:41:03;4.65;;;2.78;;
50337;SDS011;46221;51.178;5.900;2023-04-28T05:43:29;3.50;;;2.28;;
50337;SDS011;46221;51.178;5.900;2023-04-28T05:45:56;3.53;;;2.40;;
50337;SDS011;46221;51.178;5.900;2023-04-28T05:48:22;3.75;;;2.40;;
50337;SDS011;46221;51.178;5.900;2023-04-28T05:50:48;5.38;;;2.40;;
50337;SDS011;46221;51.178;5.900;2023-04-28T05:53:15;5.25;;;2.60;;
50337;SDS011;46221;51.178;5.900;2023-04-28T05:55:41;3.88;;;2.50;;
50337;SDS011;46221;51.178;5.900;2023-04-28T05:58:07;3.28;;;2.30;;
50337;SDS011;46221;51.178;5.900;2023-04-28T06:00:34;4.35;;;2.70;;
50337;SDS011;46221;51.178;5.900;2023-04-28T06:03:00;3.25;;;2.25;;
50337;SDS011;46221;51.178;5.900;2023-04-28T06:05:27;4.32;;;2.22;;
50337;SDS011;46221;51.178;5.900;2023-04-28T06:07:54;3.38;;;2.20;;
50337;SDS011;46221;51.178;5.900;2023-04-28T06:10:24;4.80;;;2.28;;
50337;SDS011;46221;51.178;5.900;2023-04-28T06:12:51;4.22;;;2.65;;
50337;SDS011;46221;51.178;5.900;2023-04-28T06:15:18;3.08;;;2.15;;
50337;SDS011;46221;51.178;5.900;2023-04-28T06:17:45;3.38;;;2.20;;
50337;SDS011;46221;51.178;5.900;2023-04-28T06:20:11;3.00;;;2.00;;
50337;SDS011;46221;51.178;5.900;2023-04-28T06:22:39;4.32;;;2.55;;
50337;SDS011;46221;51.178;5.900;2023-04-28T06:25:06;4.10;;;2.22;;
50337;SDS011;46221;51.178;5.900;2023-04-28T06:27:33;3.30;;;2.08;;
50337;SDS011;46221;51.178;5.900;2023-04-28T06:29:59;3.45;;;2.10;;
50337;SDS011;46221;51.178;5.900;2023-04-28T06:32:25;5.97;;;2.50;;
50337;SDS011;46221;51.178;5.900;2023-04-28T06:34:52;4.22;;;2.25;;
50337;SDS011;46221;51.178;5.900;2023-04-28T06:37:21;4.40;;;2.38;;
50337;SDS011;46221;51.178;5.900;2023-04-28T06:39:48;5.93;;;3.00;;
50337;SDS011;46221;51.178;5.900;2023-04-28T06:42:15;4.15;;;2.13;;
50337;SDS011;46221;51.178;5.900;2023-04-28T06:44:45;4.60;;;2.13;;
50337;SDS011;46221;51.178;5.900;2023-04-28T06:47:12;5.43;;;2.70;;
50337;SDS011;46221;51.178;5.900;2023-04-28T06:49:38;4.50;;;2.30;;
50337;SDS011;46221;51.178;5.900;2023-04-28T06:52:04;5.20;;;2.40;;
50337;SDS011;46221;51.178;5.900;2023-04-28T06:54:33;4.95;;;2.65;;
50337;SDS011;46221;51.178;5.900;2023-04-28T06:56:59;3.58;;;2.20;;
50337;SDS011;46221;51.178;5.900;2023-04-28T06:59:26;5.07;;;2.35;;
50337;SDS011;46221;51.178;5.900;2023-04-28T07:01:52;5.03;;;2.30;;
50337;SDS011;46221;51.178;5.900;2023-04-28T07:04:18;4.53;;;2.53;;
50337;SDS011;46221;51.178;5.900;2023-04-28T07:06:47;4.95;;;2.40;;
50337;SDS011;46221;51.178;5.900;2023-04-28T07:09:13;5.00;;;2.75;;
50337;SDS011;46221;51.178;5.900;2023-04-28T07:11:41;5.05;;;2.35;;
50337;SDS011;46221;51.178;5.900;2023-04-28T07:14:07;3.75;;;2.30;;
50337;SDS011;46221;51.178;5.900;2023-04-28T07:16:34;4.53;;;2.33;;
50337;SDS011;46221;51.178;5.900;2023-04-28T07:19:01;3.67;;;2.20;;
50337;SDS011;46221;51.178;5.900;2023-04-28T07:21:27;6.65;;;2.30;;
50337;SDS011;46221;51.178;5.900;2023-04-28T07:23:53;8.30;;;2.65;;
50337;SDS011;46221;51.178;5.900;2023-04-28T07:26:23;5.63;;;2.33;;
50337;SDS011;46221;51.178;5.900;2023-04-28T07:28:49;4.25;;;2.45;;
50337;SDS011;46221;51.178;5.900;2023-04-28T07:31:16;4.30;;;2.35;;
50337;SDS011;46221;51.178;5.900;2023-04-28T07:33:43;5.82;;;2.30;;
50337;SDS011;46221;51.178;5.900;2023-04-28T07:36:09;4.88;;;2.70;;
50337;SDS011;46221;51.178;5.900;2023-04-28T07:38:35;5.65;;;2.50;;
50337;SDS011;46221;51.178;5.900;2023-04-28T07:41:05;3.90;;;2.67;;
50337;SDS011;46221;51.178;5.900;2023-04-28T07:43:35;6.30;;;2.90;;
50337;SDS011;46221;51.178;5.900;2023-04-28T07:46:02;5.75;;;3.13;;
50337;SDS011;46221;51.178;5.900;2023-04-28T07:48:28;4.45;;;2.72;;
50337;SDS011;46221;51.178;5.900;2023-04-28T07:50:54;6.35;;;2.80;;
50337;SDS011;46221;51.178;5.900;2023-04-28T07:53:20;5.72;;;3.05;;
50337;SDS011;46221;51.178;5.900;2023-04-28T07:55:47;4.82;;;2.85;;
50337;SDS011;46221;51.178;5.900;2023-04-28T07:58:13;5.78;;;2.53;;
50337;SDS011;46221;51.178;5.900;2023-04-28T08:00:40;4.10;;;2.28;;
50337;SDS011;46221;51.178;5.900;2023-04-28T08:03:07;6.97;;;3.17;;
50337;SDS011;46221;51.178;5.900;2023-04-28T08:05:34;6.90;;;2.90;;
50337;SDS011;46221;51.178;5.900;2023-04-28T08:08:00;6.38;;;2.80;;
50337;SDS011;46221;51.178;5.900;2023-04-28T08:10:27;4.28;;;2.60;;
50337;SDS011;46221;51.178;5.900;2023-04-28T08:12:57;6.15;;;2.70;;
50337;SDS011;46221;51.178;5.900;2023-04-28T08:15:29;5.07;;;2.60;;
50337;SDS011;46221;51.178;5.900;2023-04-28T08:17:56;5.55;;;2.75;;
50337;SDS011;46221;51.178;5.900;2023-04-28T08:20:22;5.97;;;2.53;;
50337;SDS011;46221;51.178;5.900;2023-04-28T08:22:50;5.47;;;2.20;;
50337;SDS011;46221;51.178;5.900;2023-04-28T08:25:17;5.35;;;2.42;;
50337;SDS011;46221;51.178;5.900;2023-04-28T08:27:44;5.10;;;2.20;;
50337;SDS011;46221;51.178;5.900;2023-04-28T08:30:10;5.60;;;2.40;;
50337;SDS011;46221;51.178;5.900;2023-04-28T08:32:36;5.68;;;2.80;;
50337;SDS011;46221;51.178;5.900;2023-04-28T08:35:04;5.25;;;2.53;;
50337;SDS011;46221;51.178;5.900;2023-04-28T08:37:31;4.97;;;2.30;;
50337;SDS011;46221;51.178;5.900;2023-04-28T08:39:57;5.07;;;2.47;;
50337;SDS011;46221;51.178;5.900;2023-04-28T08:42:35;4.65;;;2.40;;
50337;SDS011;46221;51.178;5.900;2023-04-28T08:45:02;4.50;;;2.38;;
50337;SDS011;46221;51.178;5.900;2023-04-28T08:47:38;4.68;;;2.28;;
50337;SDS011;46221;51.178;5.900;2023-04-28T08:50:07;4.65;;;2.55;;
50337;SDS011;46221;51.178;5.900;2023-04-28T08:52:34;4.95;;;2.40;;
50337;SDS011;46221;51.178;5.900;2023-04-28T08:55:05;4.22;;;2.45;;
50337;SDS011;46221;51.178;5.900;2023-04-28T08:57:34;3.50;;;2.15;;
50337;SDS011;46221;51.178;5.900;2023-04-28T09:00:01;3.80;;;2.45;;
50337;SDS011;46221;51.178;5.900;2023-04-28T09:02:28;5.30;;;2.45;;
50337;SDS011;46221;51.178;5.900;2023-04-28T09:04:55;3.95;;;2.30;;
50337;SDS011;46221;51.178;5.900;2023-04-28T09:07:22;5.47;;;2.45;;
50337;SDS011;46221;51.178;5.900;2023-04-28T09:09:49;4.90;;;2.45;;
50337;SDS011;46221;51.178;5.900;2023-04-28T09:12:16;3.50;;;2.22;;
50337;SDS011;46221;51.178;5.900;2023-04-28T09:14:43;4.65;;;2.25;;
50337;SDS011;46221;51.178;5.900;2023-04-28T09:17:20;4.15;;;2.40;;
50337;SDS011;46221;51.178;5.900;2023-04-28T09:19:46;4.93;;;2.50;;
50337;SDS011;46221;51.178;5.900;2023-04-28T09:22:14;3.60;;;2.45;;
50337;SDS011;46221;51.178;5.900;2023-04-28T09:24:52;5.07;;;2.35;;
50337;SDS011;46221;51.178;5.900;2023-04-28T09:27:25;6.22;;;2.03;;
50337;SDS011;46221;51.178;5.900;2023-04-28T09:29:51;3.78;;;2.00;;
50337;SDS011;46221;51.178;5.900;2023-04-28T09:32:19;3.70;;;1.90;;
50337;SDS011;46221;51.178;5.900;2023-04-28T09:34:47;3.33;;;2.25;;
50337;SDS011;46221;51.178;5.900;2023-04-28T09:37:18;3.50;;;2.17;;
50337;SDS011;46221;51.178;5.900;2023-04-28T09:39:46;3.65;;;2.15;;
50337;SDS011;46221;51.178;5.900;2023-04-28T09:42:32;4.00;;;2.47;;
50337;SDS011;46221;51.178;5.900;2023-04-28T09:45:05;4.78;;;2.20;;
50337;SDS011;46221;51.178;5.900;2023-04-28T09:47:41;4.75;;;2.50;;
50337;SDS011;46221;51.178;5.900;2023-04-28T09:50:15;4.55;;;2.42;;
50337;SDS011;46221;51.178;5.900;2023-04-28T09:52:43;3.60;;;1.73;;
50337;SDS011;46221;51.178;5.900;2023-04-28T09:55:15;3.35;;;2.00;;
50337;SDS011;46221;51.178;5.900;2023-04-28T09:57:43;4.13;;;2.60;;
50337;SDS011;46221;51.178;5.900;2023-04-28T10:00:13;3.60;;;2.15;;
50337;SDS011;46221;51.178;5.900;2023-04-28T10:02:58;2.80;;;2.00;;
50337;SDS011;46221;51.178;5.900;2023-04-28T10:05:25;3.60;;;1.90;;
50337;SDS011;46221;51.178;5.900;2023-04-28T10:07:53;3.60;;;2.00;;
50337;SDS011;46221;51.178;5.900;2023-04-28T10:10:20;3.50;;;1.90;;
50337;SDS011;46221;51.178;5.900;2023-04-28T10:12:48;3.42;;;2.15;;
50337;SDS011;46221;51.178;5.900;2023-04-28T10:15:14;3.22;;;2.00;;
50337;SDS011;46221;51.178;5.900;2023-04-28T10:17:41;2.92;;;2.00;;
50337;SDS011;46221;51.178;5.900;2023-04-28T10:20:08;5.93;;;2.08;;
50337;SDS011;46221;51.178;5.900;2023-04-28T10:25:24;4.75;;;1.95;;
50337;SDS011;46221;51.178;5.900;2023-04-28T10:27:51;4.90;;;1.90;;
50337;SDS011;46221;51.178;5.900;2023-04-28T10:30:19;3.50;;;2.03;;
50337;SDS011;46221;51.178;5.900;2023-04-28T10:40:36;4.80;;;1.92;;
50337;SDS011;46221;51.178;5.900;2023-04-28T10:43:05;6.30;;;2.22;;
50337;SDS011;46221;51.178;5.900;2023-04-28T10:51:22;5.47;;;2.25;;
50337;SDS011;46221;51.178;5.900;2023-04-28T10:56:17;3.13;;;1.60;;
50337;SDS011;46221;51.178;5.900;2023-04-28T10:58:44;4.43;;;1.70;;
50337;SDS011;46221;51.178;5.900;2023-04-28T11:03:48;5.70;;;2.10;;
50337;SDS011;46221;51.178;5.900;2023-04-28T11:06:47;3.45;;;1.83;;
50337;SDS011;46221;51.178;5.900;2023-04-28T11:17:05;3.03;;;1.70;;
50337;SDS011;46221;51.178;5.900;2023-04-28T11:19:33;3.20;;;1.55;;
50337;SDS011;46221;51.178;5.900;2023-04-28T11:22:00;4.00;;;1.50;;
50337;SDS011;46221;51.178;5.900;2023-04-28T11:24:28;4.13;;;1.60;;
50337;SDS011;46221;51.178;5.900;2023-04-28T11:26:55;2.80;;;1.65;;
50337;SDS011;46221;51.178;5.900;2023-04-28T11:29:31;2.47;;;1.40;;
50337;SDS011;46221;51.178;5.900;2023-04-28T11:31:58;3.40;;;2.05;;
50337;SDS011;46221;51.178;5.900;2023-04-28T11:34:25;2.63;;;1.65;;
50337;SDS011;46221;51.178;5.900;2023-04-28T11:36:52;3.67;;;1.92;;
50337;SDS011;46221;51.178;5.900;2023-04-28T11:39:27;3.08;;;1.55;;
50337;SDS011;46221;51.178;5.900;2023-04-28T11:42:07;2.33;;;1.60;;
50337;SDS011;46221;51.178;5.900;2023-04-28T11:44:50;2.53;;;1.50;;
50337;SDS011;46221;51.178;5.900;2023-04-28T11:47:30;3.53;;;1.58;;
50337;SDS011;46221;51.178;5.900;2023-04-28T11:49:57;4.57;;;1.75;;
50337;SDS011;46221;51.178;5.900;2023-04-28T11:52:24;3.70;;;1.70;;
50337;SDS011;46221;51.178;5.900;2023-04-28T11:54:52;3.72;;;1.75;;
50337;SDS011;46221;51.178;5.900;2023-04-28T11:57:20;3.35;;;1.48;;
50337;SDS011;46221;51.178;5.900;2023-04-28T11:59:47;7.78;;;2.17;;
50337;SDS011;46221;51.178;5.900;2023-04-28T12:02:15;4.07;;;1.60;;
50337;SDS011;46221;51.178;5.900;2023-04-28T12:04:43;4.55;;;1.45;;
50337;SDS011;46221;51.178;5.900;2023-04-28T12:09:39;4.63;;;1.88;;
50337;SDS011;46221;51.178;5.900;2023-04-28T12:12:07;2.92;;;1.70;;
50337;SDS011;46221;51.178;5.900;2023-04-28T12:17:30;4.72;;;1.88;;
50337;SDS011;46221;51.178;5.900;2023-04-28T12:20:01;3.85;;;1.70;;
50337;SDS011;46221;51.178;5.900;2023-04-28T12:22:28;4.00;;;1.58;;
50337;SDS011;46221;51.178;5.900;2023-04-28T12:25:10;3.72;;;1.50;;
50337;SDS011;46221;51.178;5.900;2023-04-28T12:27:38;2.97;;;1.25;;
50337;SDS011;46221;51.178;5.900;2023-04-28T12:32:41;4.43;;;1.30;;
50337;SDS011;46221;51.178;5.900;2023-04-28T12:35:10;3.33;;;1.42;;
50337;SDS011;46221;51.178;5.900;2023-04-28T12:37:40;3.67;;;1.35;;
50337;SDS011;46221;51.178;5.900;2023-04-28T12:40:11;3.78;;;1.40;;
50337;SDS011;46221;51.178;5.900;2023-04-28T12:42:39;3.40;;;1.38;;
50337;SDS011;46221;51.178;5.900;2023-04-28T12:45:06;3.75;;;1.60;;
50337;SDS011;46221;51.178;5.900;2023-04-28T12:47:32;4.50;;;1.27;;
50337;SDS011;46221;51.178;5.900;2023-04-28T12:49:59;3.58;;;1.50;;
50337;SDS011;46221;51.178;5.900;2023-04-28T12:52:26;3.20;;;1.58;;
50337;SDS011;46221;51.178;5.900;2023-04-28T12:54:52;2.67;;;1.30;;
50337;SDS011;46221;51.178;5.900;2023-04-28T12:57:18;2.83;;;1.63;;
50337;SDS011;46221;51.178;5.900;2023-04-28T12:59:45;3.75;;;1.52;;
50337;SDS011;46221;51.178;5.900;2023-04-28T13:02:15;6.60;;;1.30;;
50337;SDS011;46221;51.178;5.900;2023-04-28T13:04:42;4.13;;;1.60;;
50337;SDS011;46221;51.178;5.900;2023-04-28T13:07:11;2.20;;;1.27;;
50337;SDS011;46221;51.178;5.900;2023-04-28T13:09:37;3.85;;;1.45;;
50337;SDS011;46221;51.178;5.900;2023-04-28T13:12:04;3.72;;;1.67;;
50337;SDS011;46221;51.178;5.900;2023-04-28T13:14:30;2.67;;;1.30;;
50337;SDS011;46221;51.178;5.900;2023-04-28T13:16:57;2.50;;;1.02;;
50337;SDS011;46221;51.178;5.900;2023-04-28T13:19:24;1.73;;;1.20;;
50337;SDS011;46221;51.178;5.900;2023-04-28T13:21:50;2.22;;;1.30;;
50337;SDS011;46221;51.178;5.900;2023-04-28T13:24:17;2.58;;;1.10;;
50337;SDS011;46221;51.178;5.900;2023-04-28T13:26:43;2.20;;;0.98;;
50337;SDS011;46221;51.178;5.900;2023-04-28T13:29:10;2.50;;;1.10;;
50337;SDS011;46221;51.178;5.900;2023-04-28T13:31:36;1.80;;;1.00;;
50337;SDS011;46221;51.178;5.900;2023-04-28T13:34:03;2.55;;;1.10;;
50337;SDS011;46221;51.178;5.900;2023-04-28T13:36:33;1.38;;;0.75;;
50337;SDS011;46221;51.178;5.900;2023-04-28T13:39:00;2.85;;;1.02;;
50337;SDS011;46221;51.178;5.900;2023-04-28T13:41:27;1.65;;;0.88;;
50337;SDS011;46221;51.178;5.900;2023-04-28T13:43:54;1.38;;;0.98;;
50337;SDS011;46221;51.178;5.900;2023-04-28T13:46:20;2.50;;;1.00;;
50337;SDS011;46221;51.178;5.900;2023-04-28T13:48:47;2.58;;;0.80;;
50337;SDS011;46221;51.178;5.900;2023-04-28T13:51:13;2.40;;;0.93;;
50337;SDS011;46221;51.178;5.900;2023-04-28T13:53:41;1.55;;;1.08;;
50337;SDS011;46221;51.178;5.900;2023-04-28T13:56:08;1.95;;;0.80;;
50337;SDS011;46221;51.178;5.900;2023-04-28T13:58:34;1.50;;;0.82;;
50337;SDS011;46221;51.178;5.900;2023-04-28T14:01:01;1.58;;;0.77;;
50337;SDS011;46221;51.178;5.900;2023-04-28T14:03:29;3.50;;;1.00;;
50337;SDS011;46221;51.178;5.900;2023-04-28T14:05:56;1.38;;;0.70;;
50337;SDS011;46221;51.178;5.900;2023-04-28T14:08:25;2.08;;;1.02;;
50337;SDS011;46221;51.178;5.900;2023-04-28T14:10:53;2.25;;;0.93;;
50337;SDS011;46221;51.178;5.900;2023-04-28T14:13:19;1.67;;;0.93;;
50337;SDS011;46221;51.178;5.900;2023-04-28T14:15:46;1.13;;;0.82;;
50337;SDS011;46221;51.178;5.900;2023-04-28T14:18:24;1.73;;;0.80;;
50337;SDS011;46221;51.178;5.900;2023-04-28T14:20:50;2.53;;;1.00;;
50337;SDS011;46221;51.178;5.900;2023-04-28T14:23:18;2.10;;;0.93;;
50337;SDS011;46221;51.178;5.900;2023-04-28T14:25:45;2.00;;;0.90;;
50337;SDS011;46221;51.178;5.900;2023-04-28T14:28:11;2.28;;;1.08;;
50337;SDS011;46221;51.178;5.900;2023-04-28T14:30:38;1.75;;;0.90;;
50337;SDS011;46221;51.178;5.900;2023-04-28T14:33:04;2.83;;;1.20;;
50337;SDS011;46221;51.178;5.900;2023-04-28T14:35:32;3.33;;;1.30;;
50337;SDS011;46221;51.178;5.900;2023-04-28T14:37:59;2.28;;;1.15;;
50337;SDS011;46221;51.178;5.900;2023-04-28T14:40:26;2.25;;;0.80;;
50337;SDS011;46221;51.178;5.900;2023-04-28T14:42:52;4.07;;;1.45;;
50337;SDS011;46221;51.178;5.900;2023-04-28T14:45:18;3.00;;;1.02;;
50337;SDS011;46221;51.178;5.900;2023-04-28T14:47:45;4.65;;;1.42;;
50337;SDS011;46221;51.178;5.900;2023-04-28T14:50:12;2.92;;;0.93;;
50337;SDS011;46221;51.178;5.900;2023-04-28T14:52:39;2.45;;;1.42;;
50337;SDS011;46221;51.178;5.900;2023-04-28T14:55:06;2.65;;;1.10;;
50337;SDS011;46221;51.178;5.900;2023-04-28T14:57:32;2.70;;;1.13;;
50337;SDS011;46221;51.178;5.900;2023-04-28T15:00:00;3.05;;;1.45;;
50337;SDS011;46221;51.178;5.900;2023-04-28T15:02:27;4.53;;;1.40;;
50337;SDS011;46221;51.178;5.900;2023-04-28T15:04:55;2.60;;;1.38;;
50337;SDS011;46221;51.178;5.900;2023-04-28T15:07:24;2.10;;;1.15;;
50337;SDS011;46221;51.178;5.900;2023-04-28T15:09:56;4.05;;;1.60;;
50337;SDS011;46221;51.178;5.900;2023-04-28T15:12:24;3.47;;;1.40;;
50337;SDS011;46221;51.178;5.900;2023-04-28T15:14:51;2.42;;;1.17;;
50337;SDS011;46221;51.178;5.900;2023-04-28T15:17:19;2.17;;;1.15;;
50337;SDS011;46221;51.178;5.900;2023-04-28T15:19:46;3.85;;;1.25;;
50337;SDS011;46221;51.178;5.900;2023-04-28T15:22:12;1.92;;;1.20;;
50337;SDS011;46221;51.178;5.900;2023-04-28T15:24:39;2.42;;;1.30;;
50337;SDS011;46221;51.178;5.900;2023-04-28T15:27:05;4.38;;;1.30;;